createdAt,value
2023-03-03T00:00:39.870Z,10.32
2023-03-03T00:05:34.975Z,11.20
2023-03-03T00:10:26.874Z,11.63
2023-03-03T00:15:20.926Z,11.23
2023-03-03T00:20:33.294Z,10.80
2023-03-03T00:25:30.872Z,10.40
2023-03-03T00:30:27.440Z,10.38
2023-03-03T00:35:35.844Z,9.77
2023-03-03T00:40:38.203Z,10.13
2023-03-03T00:45:51.422Z,9.03
2023-03-03T00:50:44.344Z,11.18
2023-03-03T00:55:36.286Z,11.05
2023-03-03T01:00:28.123Z,10.07
2023-03-03T01:05:21.278Z,9.63
2023-03-03T01:10:14.311Z,10.10
2023-03-03T01:15:07.868Z,9.33
2023-03-03T01:19:59.856Z,9.85
2023-03-03T01:24:51.835Z,9.38
2023-03-03T01:29:43.626Z,9.70
2023-03-03T01:34:35.482Z,9.48
2023-03-03T01:39:27.536Z,9.15
2023-03-03T01:44:19.492Z,10.10
2023-03-03T01:49:16.145Z,8.95
2023-03-03T01:54:13.422Z,9.10
2023-03-03T01:59:24.414Z,9.13
2023-03-03T02:04:17.987Z,9.13
2023-03-03T02:09:12.758Z,8.65
2023-03-03T02:14:05.020Z,8.32
2023-03-03T02:18:57.355Z,8.47
2023-03-03T02:23:58.408Z,9.17
2023-03-03T02:28:51.965Z,9.20
2023-03-03T02:33:45.833Z,7.97
2023-03-03T02:38:51.916Z,8.75
2023-03-03T02:43:52.876Z,8.85
2023-03-03T02:48:45.260Z,8.73
2023-03-03T02:53:37.319Z,8.68
2023-03-03T02:58:29.162Z,8.48
2023-03-03T03:03:21.038Z,8.35
2023-03-03T03:08:13.835Z,7.97
2023-03-03T03:13:05.669Z,8.85
2023-03-03T03:17:58.037Z,8.20
2023-03-03T03:22:50.366Z,7.90
2023-03-03T03:27:42.840Z,7.97
2023-03-03T03:32:35.106Z,8.05
2023-03-03T03:37:27.012Z,8.02
2023-03-03T03:42:18.947Z,7.72
2023-03-03T03:47:11.051Z,7.22
2023-03-03T03:52:03.600Z,8.67
2023-03-03T03:56:58.375Z,7.63
2023-03-03T04:01:51.159Z,8.30
2023-03-03T04:11:37.448Z,7.90
2023-03-03T04:16:32.766Z,7.60
2023-03-03T04:21:25.316Z,7.90
2023-03-03T04:26:20.294Z,7.65
2023-03-03T04:31:13.766Z,7.28
2023-03-03T04:36:06.552Z,7.30
2023-03-03T04:40:58.913Z,7.70
2023-03-03T04:45:53.894Z,7.43
2023-03-03T04:50:46.794Z,7.57
2023-03-03T04:55:38.846Z,6.93
2023-03-03T05:00:31.995Z,7.13
2023-03-03T05:05:25.388Z,7.15
2023-03-03T05:10:17.250Z,6.90
2023-03-03T05:15:09.341Z,7.32
2023-03-03T05:20:01.374Z,6.85
2023-03-03T05:24:53.943Z,6.80
2023-03-03T05:29:46.102Z,6.75
2023-03-03T05:34:38.309Z,7.63
2023-03-03T05:39:30.136Z,7.40
2023-03-03T05:44:21.905Z,6.57
2023-03-03T05:49:14.008Z,6.90
2023-03-03T05:54:06.059Z,7.40
2023-03-03T05:58:57.890Z,6.63
2023-03-03T06:03:49.715Z,7.40
2023-03-03T06:08:41.579Z,6.93
2023-03-03T06:13:33.502Z,7.43
2023-03-03T06:18:25.326Z,7.13
2023-03-03T06:23:17.176Z,7.10
2023-03-03T06:28:09.074Z,7.07
2023-03-03T06:33:01.053Z,6.03
2023-03-03T06:37:52.937Z,6.68
2023-03-03T06:42:45.020Z,7.25
2023-03-03T06:47:37.010Z,6.88
2023-03-03T06:52:28.866Z,7.25
2023-03-03T06:57:26.340Z,6.97
2023-03-03T07:02:18.545Z,6.47
2023-03-03T07:07:20.681Z,6.60
2023-03-03T07:12:30.391Z,6.78
2023-03-03T07:17:24.674Z,6.15
2023-03-03T07:22:21.521Z,6.38
2023-03-03T07:27:34.423Z,6.75
2023-03-03T07:32:40.401Z,6.72
2023-03-03T07:37:39.609Z,6.68
2023-03-03T07:42:40.315Z,6.13
2023-03-03T07:47:49.782Z,7.03
2023-03-03T07:52:43.738Z,5.97
2023-03-03T07:57:39.878Z,6.68
2023-03-03T08:02:47.481Z,6.53
2023-03-03T08:07:39.346Z,6.00
2023-03-03T08:12:38.173Z,6.57
2023-03-03T08:17:37.025Z,6.90
2023-03-03T08:22:35.779Z,5.60
2023-03-03T08:27:27.852Z,6.28
2023-03-03T08:32:19.897Z,5.97
2023-03-03T08:37:11.764Z,5.78
2023-03-03T08:42:03.793Z,6.30
2023-03-03T08:46:55.597Z,6.30
2023-03-03T08:51:47.500Z,6.18
2023-03-03T08:56:39.386Z,5.22
2023-03-03T09:01:32.515Z,6.28
2023-03-03T09:11:24.320Z,5.85
2023-03-03T09:16:16.537Z,6.95
2023-03-03T09:21:26.314Z,6.10
2023-03-03T09:26:32.216Z,6.05
2023-03-03T09:31:43.533Z,6.10
2023-03-03T09:36:38.646Z,5.18
2023-03-03T09:42:02.506Z,6.38
2023-03-03T09:47:00.242Z,5.88
2023-03-03T09:52:04.206Z,6.28
2023-03-03T09:57:23.225Z,5.07
2023-03-03T10:02:36.080Z,6.20
2023-03-03T10:07:43.202Z,6.18
2023-03-03T10:13:03.562Z,6.35
2023-03-03T10:18:17.168Z,5.40
2023-03-03T10:23:29.196Z,5.35
2023-03-03T10:28:43.546Z,5.70
2023-03-03T10:33:55.659Z,5.85
2023-03-03T10:38:59.544Z,5.63
2023-03-03T10:44:16.234Z,5.13
2023-03-03T10:49:45.389Z,5.72
2023-03-03T10:54:55.886Z,5.43
2023-03-03T11:00:20.056Z,5.28
2023-03-03T11:05:39.871Z,5.53
2023-03-03T11:10:58.750Z,5.93
2023-03-03T11:15:53.572Z,6.20
2023-03-03T11:21:05.697Z,6.05
2023-03-03T11:26:08.211Z,5.90
2023-03-03T11:31:22.505Z,5.23
2023-03-03T11:36:35.050Z,6.07
2023-03-03T11:41:38.087Z,5.33
2023-03-03T11:46:37.331Z,5.28
2023-03-03T11:51:41.693Z,4.88
2023-03-03T11:56:45.832Z,5.40
2023-03-03T12:01:44.693Z,5.60
2023-03-03T12:07:16.834Z,5.35
2023-03-03T12:12:19.359Z,5.53
2023-03-03T12:17:20.381Z,5.30
2023-03-03T12:22:26.817Z,5.32
2023-03-03T12:27:43.623Z,5.25
2023-03-03T12:32:56.871Z,5.25
2023-03-03T12:38:11.765Z,5.20
2023-03-03T12:44:00.413Z,5.13
2023-03-03T12:48:52.298Z,5.40
2023-03-03T12:54:07.261Z,5.10
2023-03-03T12:59:15.555Z,4.97
2023-03-03T13:04:27.344Z,5.22
2023-03-03T13:09:29.783Z,4.38
2023-03-03T13:14:44.377Z,5.07
2023-03-03T13:19:44.661Z,5.28
2023-03-03T13:24:51.460Z,4.85
2023-03-03T13:30:04.229Z,4.65
2023-03-03T13:35:09.325Z,4.75
2023-03-03T13:40:01.392Z,5.43
2023-03-03T13:44:54.852Z,5.03
2023-03-03T13:49:58.753Z,4.82
2023-03-03T13:54:57.580Z,5.15
2023-03-03T14:00:21.207Z,5.10
2023-03-03T14:05:17.314Z,5.03
2023-03-03T14:10:18.428Z,4.57
2023-03-03T14:15:23.906Z,4.90
2023-03-03T14:20:35.091Z,4.70
2023-03-03T14:25:27.280Z,4.30
2023-03-03T14:30:22.243Z,4.73
2023-03-03T14:35:19.730Z,4.68
2023-03-03T14:40:22.023Z,4.38
2023-03-03T14:45:29.436Z,4.53
2023-03-03T14:50:42.370Z,3.95
2023-03-03T14:55:37.113Z,4.50
2023-03-03T15:00:35.232Z,4.63
2023-03-03T15:05:32.346Z,4.40
2023-03-03T15:10:39.277Z,4.93
2023-03-03T15:15:31.156Z,4.90
2023-03-03T15:20:44.911Z,4.25
2023-03-03T15:25:49.755Z,4.55
2023-03-03T15:31:08.671Z,4.38
2023-03-03T15:36:19.511Z,4.97
2023-03-03T15:41:17.512Z,4.80
2023-03-03T15:46:26.166Z,4.43
2023-03-03T15:51:24.216Z,4.25
2023-03-03T15:56:34.956Z,4.63
2023-03-03T16:01:33.612Z,4.75
2023-03-03T16:06:34.310Z,4.68
2023-03-03T16:11:55.469Z,4.25
2023-03-03T16:17:05.210Z,4.75
2023-03-03T16:22:21.915Z,4.60
2023-03-03T16:27:25.109Z,4.70
2023-03-03T16:33:09.557Z,4.43
2023-03-03T16:38:14.018Z,4.60
2023-03-03T16:43:14.900Z,4.05
2023-03-03T16:48:18.485Z,4.63
2023-03-03T16:53:31.022Z,4.40
2023-03-03T16:58:34.958Z,4.33
2023-03-03T17:03:45.744Z,4.30
2023-03-03T17:09:04.234Z,4.80
2023-03-03T17:14:22.291Z,4.85
2023-03-03T17:19:51.561Z,4.60
2023-03-03T17:25:22.657Z,4.22
2023-03-03T17:30:40.707Z,4.60
2023-03-03T17:35:57.558Z,4.60
2023-03-03T17:41:11.236Z,4.80
2023-03-03T17:46:05.252Z,4.95
2023-03-03T17:51:10.382Z,4.57
2023-03-03T17:56:24.298Z,4.97
2023-03-03T18:01:25.385Z,4.68
2023-03-03T18:06:20.115Z,5.03
2023-03-03T18:11:42.612Z,5.18
2023-03-03T18:17:02.299Z,5.20
2023-03-03T18:21:55.440Z,4.88
2023-03-03T18:32:17.877Z,4.82
2023-03-03T18:37:28.493Z,5.10
2023-03-03T18:42:23.605Z,5.53
2023-03-03T18:47:17.626Z,4.82
2023-03-03T18:52:29.225Z,4.50
2023-03-03T18:57:21.254Z,5.03
2023-03-03T19:02:13.167Z,4.55
2023-03-03T19:07:10.999Z,4.90
2023-03-03T19:12:03.002Z,4.70
2023-03-03T19:16:56.752Z,4.95
2023-03-03T19:22:12.598Z,5.05
2023-03-03T19:27:26.013Z,4.72
2023-03-03T19:37:25.178Z,5.95
2023-03-03T19:42:23.389Z,5.72
2023-03-03T19:47:36.657Z,4.60
2023-03-03T19:52:41.896Z,4.85
2023-03-03T19:57:37.011Z,5.32
2023-03-03T20:02:47.784Z,5.38
2023-03-03T20:08:02.943Z,4.47
2023-03-03T20:13:17.258Z,4.95
2023-03-03T20:18:46.607Z,5.20
2023-03-03T20:24:00.243Z,5.28
2023-03-03T20:29:03.612Z,4.97
2023-03-03T20:34:20.104Z,5.88
2023-03-03T20:39:45.840Z,5.20
2023-03-03T20:45:16.644Z,4.80
2023-03-03T20:50:24.693Z,5.20
2023-03-03T20:55:33.966Z,4.97
2023-03-03T21:01:04.822Z,4.45
2023-03-03T21:06:00.743Z,5.10
2023-03-03T21:10:57.737Z,5.00
2023-03-03T21:16:04.134Z,4.57
2023-03-03T21:20:56.314Z,5.15
2023-03-03T21:25:54.189Z,4.38
2023-03-03T21:31:02.749Z,5.30
2023-03-03T21:35:58.749Z,4.57
2023-03-03T21:41:00.211Z,4.80
2023-03-03T21:45:52.179Z,4.50
2023-03-03T21:50:46.605Z,4.82
2023-03-03T21:55:38.423Z,4.90
2023-03-03T22:00:30.232Z,4.40
2023-03-03T22:05:22.330Z,4.40
2023-03-03T22:10:14.280Z,4.82
2023-03-03T22:15:06.711Z,5.03
2023-03-03T22:19:59.035Z,4.50
2023-03-03T22:24:50.872Z,4.47
2023-03-03T22:29:42.810Z,5.00
2023-03-03T22:34:34.641Z,4.53
2023-03-03T22:39:26.488Z,4.90
2023-03-03T22:44:18.336Z,4.20
2023-03-03T22:49:10.191Z,4.25
2023-03-03T22:54:02.225Z,4.53
2023-03-03T22:58:54.193Z,4.63
2023-03-03T23:03:46.093Z,4.47
2023-03-03T23:08:37.965Z,4.70
2023-03-03T23:13:29.748Z,4.60
2023-03-03T23:18:21.616Z,4.30
2023-03-03T23:23:13.557Z,4.22
2023-03-03T23:28:05.868Z,4.15
2023-03-03T23:32:57.710Z,4.97
2023-03-03T23:37:49.663Z,4.28
2023-03-03T23:42:41.572Z,4.32
2023-03-03T23:47:33.677Z,4.15
2023-03-03T23:52:25.531Z,4.35
2023-03-03T23:57:17.372Z,4.50
